CYPR/YPR METAR and TAF weather

Enter ICAO airport designator
Station Type Date Time Source
CYPR METAR 2022/06/30 00:54 UTC NOAA

CYPR 300054Z AUTO 27005KT 9SM BKN007 OVC043 13/11 A3021 RMK SLP233


Station Type Date Time Source
CYPR Decoded METAR 2022/06/30 00:54 UTC NOAA

Prince Rupert, B. C., Canada (CYPR) 54-18N 130-26W 34M
Jun 29, 2022 - 08:54 PM EDT / 2022.06.30 0054 UTC
Wind: from the W (270 degrees) at 6 MPH (5 KT):0
Visibility: 9 mile(s):0
Sky conditions: overcast
Temperature: 55 F (13 C)
Dew Point: 51 F (11 C)
Relative Humidity: 87%
Pressure (altimeter): 30.21 in. Hg (1023 hPa)
ob: CYPR 300054Z AUTO 27005KT 9SM BKN007 OVC043 13/11 A3021 RMK SLP233
cycle: 1

Station Type Date Time Source
CYPR TAF 2022/06/30 01:42 UTC NOAA

TAF TAF CYPR 300040Z 3001/3013 28006KT P6SM SCT006 OVC040
TEMPO 3001/3007 5SM -RA BR BKN006 OVC030
FM300700 VRB03KT 1 1/2SM -RA BR OVC004
TEMPO 3007/3013 6SM BR OVC010
RMK FCST BASED ON AUTO OBS. NXT FCST BY 300700Z

Example: see airport list